createdAt,value
2019-01-08T00:00:28.952Z,16.17
2019-01-08T00:01:09.720Z,16.15
2019-01-08T00:01:50.568Z,16.21
2019-01-08T00:02:31.502Z,16.15
2019-01-08T00:03:12.314Z,16.23
2019-01-08T00:03:53.074Z,16.17
2019-01-08T00:04:33.765Z,16.17
2019-01-08T00:05:14.523Z,16.17
2019-01-08T00:05:55.496Z,16.24
2019-01-08T00:06:36.361Z,16.24
2019-01-08T00:07:17.648Z,16.25
2019-01-08T00:07:57.856Z,16.17
2019-01-08T00:08:38.607Z,16.14
2019-01-08T00:09:19.417Z,16.17
2019-01-08T00:10:00.298Z,16.17
2019-01-08T00:10:41.019Z,16.17
2019-01-08T00:11:21.907Z,16.2
2019-01-08T00:12:02.866Z,16.17
2019-01-08T00:12:43.708Z,16.23
2019-01-08T00:13:24.487Z,16.15
2019-01-08T00:14:05.218Z,16.15
2019-01-08T00:14:46.046Z,16.14
2019-01-08T00:15:27.072Z,16.24
2019-01-08T00:16:07.846Z,16.11
2019-01-08T00:16:48.579Z,16.2
2019-01-08T00:17:29.454Z,16.25
2019-01-08T00:18:10.405Z,16.11
2019-01-08T00:18:51.158Z,16.15
2019-01-08T00:19:31.911Z,16.17
2019-01-08T00:20:12.630Z,16.21
2019-01-08T00:20:54.334Z,16.21
2019-01-08T00:21:35.183Z,16.15
2019-01-08T00:22:16.172Z,16.15
2019-01-08T00:22:56.947Z,16.24
2019-01-08T00:23:38.447Z,16.28
2019-01-08T00:24:19.165Z,16.24
2019-01-08T00:24:59.933Z,16.21
2019-01-08T00:25:40.771Z,16.15
2019-01-08T00:26:21.508Z,16.14
2019-01-08T00:27:02.261Z,16.15
2019-01-08T00:27:43.130Z,16.14
2019-01-08T00:28:24.736Z,16.2
2019-01-08T00:29:05.577Z,16.21
2019-01-08T00:29:46.278Z,16.23
2019-01-08T00:30:27.128Z,16.21
2019-01-08T00:31:07.919Z,16.15
2019-01-08T00:31:48.681Z,16.17
2019-01-08T00:32:29.451Z,16.2
2019-01-08T00:33:10.149Z,16.25
2019-01-08T00:33:50.891Z,16.15
2019-01-08T00:34:31.704Z,16.15
2019-01-08T00:35:12.414Z,16.2
2019-01-08T00:35:53.163Z,16.11
2019-01-08T00:36:33.988Z,16.2
2019-01-08T00:37:14.769Z,16.15
2019-01-08T00:37:55.605Z,16.2
2019-01-08T00:38:36.328Z,16.17
2019-01-08T00:39:17.076Z,16.15
2019-01-08T00:39:57.862Z,16.15
2019-01-08T00:40:38.668Z,16.11
2019-01-08T00:41:19.500Z,16.15
2019-01-08T00:42:00.313Z,16.21
2019-01-08T00:42:41.048Z,16.17
2019-01-08T00:43:21.810Z,16.17
2019-01-08T00:44:02.749Z,16.24
2019-01-08T00:44:43.518Z,16.21
2019-01-08T00:45:24.797Z,16.15
2019-01-08T00:46:05.503Z,16.17
2019-01-08T00:46:46.238Z,16.14
2019-01-08T00:47:27.064Z,16.14
2019-01-08T00:48:07.793Z,16.2
2019-01-08T00:48:48.524Z,16.17
2019-01-08T00:49:29.353Z,16.14
2019-01-08T00:50:10.168Z,16.2
2019-01-08T00:50:50.995Z,16.15
2019-01-08T00:51:31.684Z,16.24
2019-01-08T00:52:12.559Z,16.15
2019-01-08T00:52:53.483Z,16.15
2019-01-08T00:53:34.200Z,16.14
2019-01-08T00:54:14.909Z,16.21
2019-01-08T00:54:55.629Z,16.15
2019-01-08T00:55:36.400Z,16.21
2019-01-08T00:56:17.274Z,16.09
2019-01-08T00:56:58.165Z,16.17
2019-01-08T00:57:38.947Z,16.17
2019-01-08T00:58:19.654Z,16.2
2019-01-08T00:59:00.440Z,16.12
2019-01-08T00:59:41.481Z,16.17
2019-01-08T01:00:22.404Z,16.2
2019-01-08T01:01:03.257Z,16.14
2019-01-08T01:01:44.028Z,16.14
2019-01-08T01:02:25.506Z,16.14
2019-01-08T01:03:06.266Z,16.17
2019-01-08T01:03:47.106Z,16.17
2019-01-08T01:22:57.289Z,16.15
2019-01-08T01:23:37.921Z,16.21
2019-01-08T01:24:18.531Z,16.09
2019-01-08T01:24:59.129Z,16.11
2019-01-08T01:25:39.727Z,16.14
2019-01-08T01:26:20.336Z,16.15
2019-01-08T01:27:00.933Z,16.15
2019-01-08T01:27:41.612Z,16.2
2019-01-08T01:28:22.247Z,16.05
2019-01-08T01:29:02.865Z,16.09
2019-01-08T01:29:43.493Z,16.07
2019-01-08T01:30:24.087Z,16.14
2019-01-08T01:31:04.690Z,16.17
2019-01-08T01:31:45.305Z,16.14
2019-01-08T01:32:25.908Z,16.08
2019-01-08T01:33:06.517Z,16.07
2019-01-08T01:33:47.121Z,16.08
2019-01-08T01:34:27.721Z,16.11
2019-01-08T01:35:08.402Z,16.08
2019-01-08T01:35:48.966Z,16.09
2019-01-08T01:36:29.585Z,16.14
2019-01-08T01:37:10.189Z,16.14
2019-01-08T01:37:50.801Z,16.08
2019-01-08T01:38:31.411Z,16.2
2019-01-08T01:39:12.023Z,16.12
2019-01-08T01:39:52.673Z,16.12
2019-01-08T01:40:33.253Z,16.08
2019-01-08T01:41:13.865Z,16.09
2019-01-08T01:41:54.480Z,16.05
2019-01-08T01:42:35.095Z,16.08
2019-01-08T01:43:15.689Z,16.14
2019-01-08T01:43:56.337Z,16.08
2019-01-08T01:44:36.963Z,16.11
2019-01-08T01:45:17.573Z,16.12
2019-01-08T01:45:58.171Z,16.08
2019-01-08T01:46:38.779Z,16.05
2019-01-08T01:47:19.393Z,16.2
2019-01-08T01:47:59.997Z,16.08
2019-01-08T01:48:40.619Z,16.09
2019-01-08T01:49:21.315Z,16.11
2019-01-08T01:50:01.950Z,16.11
2019-01-08T01:50:42.551Z,16.11
2019-01-08T01:51:23.190Z,16.11
2019-01-08T01:52:03.815Z,16.08
2019-01-08T01:52:44.419Z,16.09
2019-01-08T01:53:25.099Z,16.11
2019-01-08T01:54:05.657Z,16.11
2019-01-08T01:54:46.259Z,16.12
2019-01-08T01:55:26.875Z,16.11
2019-01-08T01:56:07.517Z,16.08
2019-01-08T01:56:48.139Z,16.11
2019-01-08T01:57:28.733Z,16.11
2019-01-08T01:58:09.324Z,16.09
2019-01-08T01:58:49.930Z,16.11
2019-01-08T01:59:30.544Z,16.05
2019-01-08T02:00:11.172Z,16.12
2019-01-08T02:00:51.771Z,16.12
2019-01-08T02:01:32.381Z,16.05
2019-01-08T02:02:13.043Z,16.14
2019-01-08T02:02:53.657Z,16.07
2019-01-08T02:03:34.289Z,16.14
2019-01-08T02:04:14.887Z,16.09
2019-01-08T02:04:55.625Z,16.14
2019-01-08T02:05:36.212Z,16.14
2019-01-08T02:06:16.847Z,16.09
2019-01-08T02:06:57.603Z,16.17
2019-01-08T02:07:38.228Z,16.08
2019-01-08T02:08:18.830Z,16.09
2019-01-08T02:08:59.451Z,16.05
2019-01-08T02:09:40.094Z,16.11
2019-01-08T02:10:20.722Z,16.11
2019-01-08T02:11:01.373Z,16.08
2019-01-08T02:11:42.029Z,16.08
2019-01-08T02:12:22.895Z,16.05
2019-01-08T02:13:04.681Z,16.07
2019-01-08T02:13:45.605Z,16.08
2019-01-08T02:14:26.275Z,16.11
2019-01-08T02:15:06.877Z,16.09
2019-01-08T02:15:47.503Z,16.05
2019-01-08T02:16:28.125Z,16.07
2019-01-08T02:17:08.733Z,16.08
2019-01-08T02:17:49.353Z,16.09
2019-01-08T02:18:29.966Z,16.08
2019-01-08T02:19:10.580Z,16.11
2019-01-08T02:19:51.199Z,16.04
2019-01-08T02:20:31.799Z,16.04
2019-01-08T02:21:12.409Z,16.07
2019-01-08T02:21:53.029Z,16.05
2019-01-08T02:22:33.638Z,16.07
2019-01-08T02:23:14.253Z,16.05
2019-01-08T02:23:54.867Z,16.08
2019-01-08T02:24:35.475Z,16.02
2019-01-08T02:25:16.085Z,16.07
2019-01-08T02:25:56.693Z,16.04
2019-01-08T02:26:37.291Z,16.07
2019-01-08T02:27:17.947Z,16.07
2019-01-08T02:27:58.557Z,16.02
2019-01-08T02:28:39.171Z,16.07
2019-01-08T02:29:19.798Z,16.01
2019-01-08T02:30:00.415Z,16.08
2019-01-08T02:30:41.034Z,16.07
2019-01-08T02:31:21.646Z,16.09
2019-01-08T02:32:02.250Z,16.08
2019-01-08T02:32:42.861Z,16.05
2019-01-08T02:33:23.469Z,16.05
2019-01-08T02:34:04.093Z,16.08
2019-01-08T02:34:44.713Z,15.97
2019-01-08T02:35:25.327Z,16.07
2019-01-08T02:36:05.941Z,16.02
2019-01-08T02:36:46.571Z,16.04
2019-01-08T02:37:27.177Z,16.07
2019-01-08T02:38:07.835Z,16.01
2019-01-08T02:38:48.429Z,16.04
2019-01-08T02:39:29.047Z,16.01
2019-01-08T02:40:09.693Z,16.04
2019-01-08T02:40:50.295Z,16.08
2019-01-08T02:41:30.952Z,15.97
2019-01-08T02:42:11.545Z,16
2019-01-08T02:42:52.140Z,15.96
2019-01-08T02:43:32.767Z,16
2019-01-08T02:44:13.470Z,15.97
2019-01-08T02:44:53.969Z,16.08
2019-01-08T02:45:34.594Z,16.01
2019-01-08T02:46:15.341Z,16.02
2019-01-08T02:46:55.820Z,16
2019-01-08T02:47:36.439Z,16.01
2019-01-08T02:48:17.068Z,15.96
2019-01-08T02:48:57.691Z,15.96
2019-01-08T02:49:38.307Z,15.97
2019-01-08T02:50:18.927Z,15.96
2019-01-08T02:50:59.562Z,16.01
2019-01-08T02:51:40.173Z,16
2019-01-08T02:52:20.765Z,15.94
2019-01-08T02:53:01.382Z,16.01
2019-01-08T02:53:41.993Z,15.96
2019-01-08T02:54:22.596Z,15.93
2019-01-08T02:55:03.187Z,15.97
2019-01-08T02:55:43.841Z,15.96
2019-01-08T02:56:24.455Z,15.96
2019-01-08T02:57:05.112Z,15.97
2019-01-08T02:57:45.751Z,16
2019-01-08T02:58:26.353Z,15.92
2019-01-08T02:59:06.955Z,15.96
2019-01-08T02:59:48.819Z,15.97
2019-01-08T03:00:28.212Z,16.01
2019-01-08T03:01:08.857Z,15.93
2019-01-08T03:01:49.515Z,15.96
2019-01-08T03:02:30.117Z,15.97
2019-01-08T03:03:10.761Z,16.01
2019-01-08T03:03:51.407Z,16.01
2019-01-08T03:04:32.025Z,16.02
2019-01-08T03:05:12.651Z,15.93
2019-01-08T03:05:53.265Z,15.93
2019-01-08T03:06:33.867Z,15.96
2019-01-08T03:07:14.487Z,15.94
2019-01-08T03:07:55.111Z,15.92
2019-01-08T03:08:35.741Z,15.97
2019-01-08T03:09:16.365Z,15.9
2019-01-08T03:09:57.011Z,15.97
2019-01-08T03:10:37.639Z,15.9
2019-01-08T03:11:18.273Z,15.97
2019-01-08T03:11:58.897Z,15.9
2019-01-08T03:12:39.753Z,15.96
2019-01-08T03:13:20.377Z,15.97
2019-01-08T03:14:00.981Z,15.89
2019-01-08T03:14:41.571Z,15.92
2019-01-08T03:15:22.183Z,15.97
2019-01-08T03:16:02.793Z,15.93
2019-01-08T03:16:43.393Z,15.93
2019-01-08T03:17:23.998Z,15.94
2019-01-08T03:18:04.611Z,16
2019-01-08T03:18:45.216Z,15.84
2019-01-08T03:19:25.821Z,15.93
2019-01-08T03:20:06.435Z,15.89
2019-01-08T03:20:47.063Z,15.84
2019-01-08T03:21:27.677Z,15.93
2019-01-08T03:22:08.287Z,15.93
2019-01-08T03:22:48.889Z,15.92
2019-01-08T03:23:29.513Z,15.96
2019-01-08T03:24:10.119Z,15.89
2019-01-08T03:24:50.721Z,15.93
2019-01-08T03:25:31.309Z,15.92
2019-01-08T03:26:11.953Z,15.93
2019-01-08T03:26:52.569Z,15.93
2019-01-08T03:27:33.167Z,15.92
2019-01-08T03:28:13.802Z,15.97
2019-01-08T03:28:54.423Z,15.83
2019-01-08T03:29:35.055Z,15.9
2019-01-08T03:30:15.674Z,15.97
2019-01-08T03:30:56.279Z,15.94
2019-01-08T03:31:36.888Z,15.97
2019-01-08T03:32:17.483Z,15.9
2019-01-08T03:32:58.133Z,15.97
2019-01-08T03:33:38.741Z,15.97
2019-01-08T03:34:19.397Z,15.97
2019-01-08T03:35:00.005Z,15.87
2019-01-08T03:35:40.631Z,15.89
2019-01-08T03:36:21.231Z,15.92
2019-01-08T03:37:01.871Z,15.86
2019-01-08T03:37:42.505Z,15.86
2019-01-08T03:38:23.121Z,15.94
2019-01-08T03:39:03.728Z,15.87
2019-01-08T03:39:44.379Z,15.94
2019-01-08T03:40:24.980Z,15.87
2019-01-08T03:41:05.597Z,15.97
2019-01-08T03:41:46.198Z,15.94
2019-01-08T03:42:26.803Z,15.87
2019-01-08T03:43:07.407Z,15.92
2019-01-08T03:43:48.025Z,15.89
2019-01-08T03:44:28.637Z,15.96
2019-01-08T03:45:09.245Z,15.86
2019-01-08T03:45:49.929Z,15.94
2019-01-08T03:46:30.531Z,15.97
2019-01-08T03:47:11.147Z,15.97
2019-01-08T03:47:51.777Z,15.84
2019-01-08T03:48:32.379Z,15.9
2019-01-08T03:49:12.997Z,15.89
2019-01-08T03:49:53.658Z,15.89
2019-01-08T03:50:34.261Z,15.87
2019-01-08T03:51:14.857Z,15.87
2019-01-08T03:51:55.465Z,15.84
2019-01-08T03:52:36.065Z,15.84
2019-01-08T03:53:16.657Z,15.87
2019-01-08T03:53:57.289Z,15.89
2019-01-08T03:54:37.917Z,15.97
2019-01-08T03:55:18.532Z,15.86
2019-01-08T03:55:59.245Z,15.89
2019-01-08T03:56:39.793Z,15.93
2019-01-08T03:57:20.407Z,15.87
2019-01-08T03:58:01.025Z,15.89
2019-01-08T03:58:41.658Z,15.87
2019-01-08T03:59:22.276Z,15.87
2019-01-08T04:00:02.891Z,15.87
2019-01-08T04:00:43.502Z,15.89
2019-01-08T04:01:24.105Z,15.87
2019-01-08T04:02:04.717Z,15.86
2019-01-08T04:02:45.315Z,15.84
2019-01-08T04:03:25.925Z,15.86
2019-01-08T04:04:06.573Z,15.84
2019-01-08T04:04:47.181Z,15.86
2019-01-08T04:05:27.791Z,15.87
2019-01-08T04:06:08.399Z,15.86
2019-01-08T04:06:49.021Z,15.89
2019-01-08T04:07:29.629Z,15.89
2019-01-08T04:08:10.229Z,15.87
2019-01-08T04:08:50.843Z,15.84
2019-01-08T04:09:31.445Z,15.84
2019-01-08T04:10:12.060Z,15.9
2019-01-08T04:10:52.669Z,15.89
2019-01-08T04:11:33.271Z,15.84
2019-01-08T04:12:13.899Z,15.83
2019-01-08T04:12:54.505Z,15.82
2019-01-08T04:13:35.107Z,15.87
2019-01-08T04:14:15.725Z,15.86
2019-01-08T04:14:56.313Z,15.84
2019-01-08T04:15:36.903Z,15.82
2019-01-08T04:16:17.505Z,15.82
2019-01-08T04:16:58.113Z,15.82
2019-01-08T04:17:38.733Z,15.84
2019-01-08T04:18:19.345Z,15.84
2019-01-08T04:19:00.001Z,15.86
2019-01-08T04:19:40.623Z,15.87
2019-01-08T04:20:21.223Z,15.82
2019-01-08T04:21:01.839Z,15.8
2019-01-08T04:21:42.461Z,15.87
2019-01-08T04:22:23.089Z,15.9
2019-01-08T04:23:03.756Z,15.86
2019-01-08T04:23:44.361Z,15.78
2019-01-08T04:24:24.989Z,15.84
2019-01-08T04:25:05.613Z,15.84
2019-01-08T04:25:46.219Z,15.84
2019-01-08T04:26:26.825Z,15.8
2019-01-08T04:27:07.465Z,15.78
2019-01-08T04:27:48.090Z,15.84
2019-01-08T04:28:28.705Z,15.78
2019-01-08T04:29:09.320Z,15.78
2019-01-08T04:29:50.537Z,15.83
2019-01-08T04:30:30.555Z,15.82
2019-01-08T04:31:11.162Z,15.82
2019-01-08T04:31:51.765Z,15.76
2019-01-08T04:32:32.383Z,15.72
2019-01-08T04:33:13.019Z,15.78
2019-01-08T04:33:53.633Z,15.8
2019-01-08T04:34:34.235Z,15.74
2019-01-08T04:35:14.866Z,15.78
2019-01-08T04:35:55.472Z,15.83
2019-01-08T04:36:36.105Z,15.78
2019-01-08T04:37:16.725Z,15.74
2019-01-08T04:37:57.334Z,15.78
2019-01-08T04:38:37.951Z,15.84
2019-01-08T04:39:18.545Z,15.82
2019-01-08T04:39:59.166Z,15.76
2019-01-08T04:40:39.781Z,15.78
2019-01-08T04:41:20.423Z,15.86
2019-01-08T04:42:01.035Z,15.75
2019-01-08T04:42:41.640Z,15.82
2019-01-08T04:43:22.247Z,15.83
2019-01-08T04:44:02.857Z,15.8
2019-01-08T04:44:43.455Z,15.78
2019-01-08T04:45:24.075Z,15.83
2019-01-08T04:46:04.791Z,15.74
2019-01-08T04:46:45.383Z,15.78
2019-01-08T04:47:25.997Z,15.78
2019-01-08T04:48:06.615Z,15.8
2019-01-08T04:48:47.239Z,15.78
2019-01-08T04:49:27.862Z,15.75
2019-01-08T04:50:08.471Z,15.78
2019-01-08T04:50:49.072Z,15.83
2019-01-08T04:51:29.713Z,15.75
2019-01-08T04:52:10.325Z,15.78
2019-01-08T04:52:50.931Z,15.78
2019-01-08T04:53:31.530Z,15.78
2019-01-08T04:54:12.132Z,15.8
2019-01-08T04:54:52.779Z,15.76
2019-01-08T04:55:33.391Z,15.83
2019-01-08T04:56:13.997Z,15.72
2019-01-08T04:56:54.631Z,15.8
2019-01-08T04:57:35.351Z,15.78
2019-01-08T04:58:15.952Z,15.78
2019-01-08T04:58:56.569Z,15.76
2019-01-08T04:59:37.179Z,15.78
2019-01-08T05:00:17.796Z,15.74
2019-01-08T05:00:58.416Z,15.82
2019-01-08T05:01:39.015Z,15.71
2019-01-08T05:02:19.615Z,15.8
2019-01-08T05:03:00.237Z,15.82
2019-01-08T05:03:40.836Z,15.75
2019-01-08T05:04:21.527Z,15.76
2019-01-08T05:05:02.129Z,15.76
2019-01-08T05:05:42.770Z,15.74
2019-01-08T05:06:23.377Z,15.71
2019-01-08T05:07:04.001Z,15.78
2019-01-08T05:07:44.606Z,15.72
2019-01-08T05:08:25.227Z,15.72
2019-01-08T05:09:05.880Z,15.75
2019-01-08T05:09:46.477Z,15.74
2019-01-08T05:10:27.100Z,15.75
2019-01-08T05:11:07.718Z,15.75
2019-01-08T05:11:48.337Z,15.78
2019-01-08T05:12:28.946Z,15.86
2019-01-08T05:13:09.551Z,15.74
2019-01-08T05:13:50.159Z,15.8
2019-01-08T05:14:30.756Z,15.74
2019-01-08T05:15:11.365Z,15.8
2019-01-08T05:15:51.978Z,15.72
2019-01-08T05:16:32.619Z,15.74
2019-01-08T05:17:13.223Z,15.75
2019-01-08T05:17:53.840Z,15.78
2019-01-08T05:18:34.500Z,15.76
2019-01-08T05:19:15.118Z,15.74
2019-01-08T05:19:55.735Z,15.78
2019-01-08T05:20:36.371Z,15.76
2019-01-08T05:21:16.963Z,15.76
2019-01-08T05:21:57.580Z,15.82
2019-01-08T05:22:38.259Z,15.74
2019-01-08T05:23:18.791Z,15.76
2019-01-08T05:23:59.407Z,15.8
2019-01-08T05:24:40.042Z,15.78
2019-01-08T05:25:20.651Z,15.75
2019-01-08T05:26:01.258Z,15.74
2019-01-08T05:26:41.872Z,15.83
2019-01-08T05:27:22.491Z,15.75
2019-01-08T05:28:03.102Z,15.76
2019-01-08T05:28:43.698Z,15.74
2019-01-08T05:29:24.416Z,15.74
2019-01-08T05:30:08.032Z,15.83
2019-01-08T05:30:45.628Z,15.74
2019-01-08T05:31:26.221Z,15.76
2019-01-08T05:32:06.816Z,15.74
2019-01-08T05:32:47.435Z,15.71
2019-01-08T05:33:28.041Z,15.75
2019-01-08T05:34:08.682Z,15.75
2019-01-08T05:34:49.294Z,15.76
2019-01-08T05:35:29.924Z,15.78
2019-01-08T05:36:10.542Z,15.78
2019-01-08T05:36:51.136Z,15.75
2019-01-08T05:37:31.741Z,15.71
2019-01-08T05:38:12.334Z,15.74
2019-01-08T05:38:52.940Z,15.83
2019-01-08T05:39:33.558Z,15.71
2019-01-08T05:40:14.245Z,15.69
2019-01-08T05:40:54.793Z,15.74
2019-01-08T05:41:35.400Z,15.75
2019-01-08T05:42:16.037Z,15.71
2019-01-08T05:42:56.655Z,15.74
2019-01-08T05:43:37.264Z,15.72
2019-01-08T05:44:17.900Z,15.75
2019-01-08T05:44:58.510Z,15.72
2019-01-08T05:45:39.120Z,15.72
2019-01-08T05:46:19.725Z,15.74
2019-01-08T05:47:00.335Z,15.72
2019-01-08T05:47:40.934Z,15.78
2019-01-08T05:48:21.539Z,15.72
2019-01-08T05:49:02.177Z,15.74
2019-01-08T05:49:42.786Z,15.67
2019-01-08T05:50:23.388Z,15.8
2019-01-08T05:51:04.018Z,15.72
2019-01-08T05:51:44.634Z,15.75
2019-01-08T05:52:25.225Z,15.72
2019-01-08T05:53:05.841Z,15.71
2019-01-08T05:53:46.448Z,15.74
2019-01-08T05:54:27.039Z,15.8
2019-01-08T05:55:07.643Z,15.69
2019-01-08T05:55:48.251Z,15.76
2019-01-08T05:56:28.851Z,15.68
2019-01-08T05:57:09.490Z,15.72
2019-01-08T05:57:50.110Z,15.74
2019-01-08T05:58:30.716Z,15.68
2019-01-08T05:59:11.338Z,15.78
2019-01-08T05:59:51.956Z,15.71
2019-01-08T06:00:32.560Z,15.76
2019-01-08T06:01:13.160Z,15.76
2019-01-08T06:01:53.768Z,15.74
2019-01-08T06:02:34.376Z,15.75
2019-01-08T06:03:15.008Z,15.76
2019-01-08T06:03:55.657Z,15.74
2019-01-08T06:04:36.271Z,15.72
2019-01-08T06:05:16.942Z,15.67
2019-01-08T06:05:57.558Z,15.78
2019-01-08T06:06:38.190Z,15.75
2019-01-08T06:07:18.826Z,15.65
2019-01-08T06:07:59.430Z,15.75
2019-01-08T06:08:40.036Z,15.67
2019-01-08T06:09:20.640Z,15.71
2019-01-08T06:10:01.252Z,15.76
2019-01-08T06:10:41.864Z,15.78
2019-01-08T06:11:22.482Z,15.69
2019-01-08T06:12:03.104Z,15.64
2019-01-08T06:12:43.715Z,15.75
2019-01-08T06:13:24.340Z,15.68
2019-01-08T06:14:04.960Z,15.69
2019-01-08T06:14:45.556Z,15.67
2019-01-08T06:15:26.166Z,15.65
2019-01-08T06:16:06.783Z,15.72
2019-01-08T06:16:47.374Z,15.75
2019-01-08T06:17:28.029Z,15.68
2019-01-08T06:18:08.678Z,15.69
2019-01-08T06:18:49.276Z,15.68
2019-01-08T06:19:29.960Z,15.69
2019-01-08T06:20:10.619Z,15.74
2019-01-08T06:20:51.260Z,15.71
2019-01-08T06:21:31.911Z,15.69
2019-01-08T06:22:12.534Z,15.72
2019-01-08T06:22:53.146Z,15.72
2019-01-08T06:23:33.768Z,15.67
2019-01-08T06:24:14.382Z,15.68
2019-01-08T06:24:55.005Z,15.6
2019-01-08T06:25:35.628Z,15.76
2019-01-08T06:26:16.236Z,15.72
2019-01-08T06:26:56.845Z,15.75
2019-01-08T06:27:37.460Z,15.64
2019-01-08T06:28:18.100Z,15.68
2019-01-08T06:28:58.720Z,15.64
2019-01-08T06:29:39.339Z,15.71
2019-01-08T06:30:24.651Z,15.69
2019-01-08T06:31:00.610Z,15.76
2019-01-08T06:31:41.278Z,15.67
2019-01-08T06:32:21.914Z,15.68
2019-01-08T06:33:02.530Z,15.67
2019-01-08T06:33:43.156Z,15.72
2019-01-08T06:34:23.914Z,15.72
2019-01-08T06:35:04.580Z,15.83
2019-01-08T06:35:45.278Z,15.74
2019-01-08T06:36:26.275Z,15.72
2019-01-08T06:37:06.532Z,15.71
2019-01-08T06:37:47.157Z,15.69
2019-01-08T06:38:27.788Z,15.72
2019-01-08T06:39:08.401Z,15.72
2019-01-08T06:39:49.084Z,15.69
2019-01-08T06:40:29.736Z,15.67
2019-01-08T06:41:10.344Z,15.68
2019-01-08T06:41:50.948Z,15.65
2019-01-08T06:42:31.568Z,15.72
2019-01-08T06:43:12.154Z,15.65
2019-01-08T06:43:52.774Z,15.72
2019-01-08T06:44:33.394Z,15.68
2019-01-08T06:45:14.008Z,15.68
2019-01-08T06:45:54.624Z,15.64
2019-01-08T06:46:42.748Z,15.69
2019-01-08T06:47:15.842Z,15.74
2019-01-08T06:47:56.470Z,15.69
2019-01-08T06:48:37.100Z,15.72
2019-01-08T06:49:17.712Z,15.72
2019-01-08T06:49:58.320Z,15.72
2019-01-08T06:50:38.943Z,15.72
2019-01-08T06:51:19.564Z,15.65
2019-01-08T06:52:00.172Z,15.67
2019-01-08T06:52:40.796Z,15.69
2019-01-08T06:53:21.408Z,15.67
2019-01-08T06:54:02.038Z,15.72
2019-01-08T06:54:42.644Z,15.72
2019-01-08T06:55:23.260Z,15.68
2019-01-08T06:56:03.950Z,15.67
2019-01-08T06:56:44.498Z,15.71
2019-01-08T06:57:25.154Z,15.65
2019-01-08T06:58:05.754Z,15.68
2019-01-08T06:58:46.425Z,15.75
2019-01-08T06:59:27.036Z,15.69
2019-01-08T07:00:07.648Z,15.74
2019-01-08T07:00:48.251Z,15.68
2019-01-08T07:01:28.908Z,15.8
2019-01-08T07:02:09.516Z,15.69
2019-01-08T07:02:50.113Z,15.78
2019-01-08T07:03:30.738Z,15.67
2019-01-08T07:04:11.418Z,15.67
2019-01-08T07:04:52.040Z,15.71
2019-01-08T07:05:32.684Z,15.72
2019-01-08T07:06:13.280Z,15.74
2019-01-08T07:06:53.884Z,15.72
2019-01-08T07:07:34.494Z,15.72
2019-01-08T07:08:15.094Z,15.75
2019-01-08T07:08:55.722Z,15.71
2019-01-08T07:09:36.356Z,15.71
2019-01-08T07:10:16.951Z,15.72
2019-01-08T07:10:57.604Z,15.78
2019-01-08T07:11:38.210Z,15.72
2019-01-08T07:12:18.852Z,15.64
2019-01-08T07:12:59.500Z,15.75
2019-01-08T07:13:40.092Z,15.74
2019-01-08T07:14:20.726Z,15.76
2019-01-08T07:15:01.332Z,15.68
2019-01-08T07:15:41.936Z,15.72
2019-01-08T07:16:22.558Z,15.75
2019-01-08T07:17:03.174Z,15.69
2019-01-08T07:17:43.825Z,15.64
2019-01-08T07:18:24.440Z,15.71
2019-01-08T07:19:05.042Z,15.64
2019-01-08T07:19:45.641Z,15.8
2019-01-08T07:20:26.316Z,15.67
2019-01-08T07:21:06.910Z,15.72
2019-01-08T07:21:47.538Z,15.68
2019-01-08T07:22:28.147Z,15.72
2019-01-08T07:23:08.756Z,15.69
2019-01-08T07:23:49.396Z,15.75
2019-01-08T07:24:30.017Z,15.68
2019-01-08T07:25:10.630Z,15.72
2019-01-08T07:25:51.248Z,15.67
2019-01-08T07:26:31.882Z,15.75
2019-01-08T07:27:16.472Z,15.69
2019-01-08T07:27:53.117Z,15.67
2019-01-08T07:28:33.714Z,15.72
2019-01-08T07:29:14.326Z,15.69
2019-01-08T07:29:54.920Z,15.67
2019-01-08T07:30:41.365Z,15.74
2019-01-08T07:31:16.124Z,15.72
2019-01-08T07:31:56.724Z,15.6
2019-01-08T07:32:37.326Z,15.57
2019-01-08T07:33:17.960Z,15.64
2019-01-08T07:33:58.618Z,15.62
2019-01-08T07:34:39.233Z,15.67
2019-01-08T07:35:19.849Z,15.72
2019-01-08T07:36:00.487Z,15.72
2019-01-08T07:36:41.138Z,15.69
2019-01-08T07:37:21.740Z,15.71
2019-01-08T07:38:02.360Z,15.67
2019-01-08T07:38:42.988Z,15.69
2019-01-08T07:39:23.598Z,15.69
2019-01-08T07:40:04.209Z,15.67
2019-01-08T07:40:44.812Z,15.75
2019-01-08T07:41:25.442Z,15.69
2019-01-08T07:42:06.060Z,15.69
2019-01-08T07:42:46.660Z,15.65
2019-01-08T07:43:27.256Z,15.71
2019-01-08T07:44:07.910Z,15.69
2019-01-08T07:44:48.533Z,15.65
2019-01-08T07:45:29.139Z,15.72
2019-01-08T07:46:09.762Z,15.67
2019-01-08T07:46:50.374Z,15.68
2019-01-08T07:47:31.029Z,15.69
2019-01-08T07:48:11.644Z,15.69
2019-01-08T07:48:52.273Z,15.72
2019-01-08T07:49:32.874Z,15.71
2019-01-08T07:50:13.500Z,15.64
2019-01-08T07:50:54.147Z,15.67
2019-01-08T07:51:34.774Z,15.69
2019-01-08T07:52:15.441Z,15.65
2019-01-08T07:52:56.055Z,15.68
2019-01-08T07:53:36.704Z,15.72
2019-01-08T07:54:17.316Z,15.65
2019-01-08T07:54:57.941Z,15.69
2019-01-08T07:55:38.552Z,15.71
2019-01-08T07:56:19.177Z,15.72
2019-01-08T07:56:59.840Z,15.71
2019-01-08T07:57:40.452Z,15.72
2019-01-08T07:58:21.068Z,15.6
2019-01-08T07:59:01.682Z,15.72
2019-01-08T07:59:42.285Z,15.67
2019-01-08T08:00:22.931Z,15.67
2019-01-08T08:01:03.534Z,15.62
2019-01-08T08:01:44.144Z,15.67
2019-01-08T08:02:24.751Z,15.69
2019-01-08T08:03:05.371Z,15.67
2019-01-08T08:03:45.986Z,15.68
2019-01-08T08:04:26.596Z,15.67
2019-01-08T08:05:07.207Z,15.69
2019-01-08T08:05:47.795Z,15.72
2019-01-08T08:06:28.446Z,15.76
2019-01-08T08:07:09.011Z,15.75
2019-01-08T08:07:49.648Z,15.68
2019-01-08T08:08:30.254Z,15.71
2019-01-08T08:09:10.849Z,15.71
2019-01-08T08:09:51.500Z,15.69
2019-01-08T08:10:32.149Z,15.64
2019-01-08T08:11:12.773Z,15.75
2019-01-08T08:11:53.415Z,15.68
2019-01-08T08:12:34.017Z,15.69
2019-01-08T08:13:14.620Z,15.72
2019-01-08T08:13:55.216Z,15.68
2019-01-08T08:14:35.815Z,15.67
2019-01-08T08:15:16.465Z,15.72
2019-01-08T08:15:57.078Z,15.72
2019-01-08T08:16:37.685Z,15.71
2019-01-08T08:17:18.289Z,15.74
2019-01-08T08:17:58.888Z,15.71
2019-01-08T08:18:39.500Z,15.78
2019-01-08T08:19:20.103Z,15.67
2019-01-08T08:20:00.727Z,15.67
2019-01-08T08:20:41.340Z,15.68
2019-01-08T08:21:21.948Z,15.67
2019-01-08T08:22:02.552Z,15.67
2019-01-08T08:22:43.157Z,15.75
2019-01-08T08:23:23.779Z,15.69
2019-01-08T08:24:04.405Z,15.71
2019-01-08T08:24:45.009Z,15.67
2019-01-08T08:25:25.657Z,15.72
2019-01-08T08:26:06.261Z,15.69
2019-01-08T08:26:46.864Z,15.74
2019-01-08T08:27:27.465Z,15.72
2019-01-08T08:28:08.067Z,15.68
2019-01-08T08:28:48.679Z,15.72
2019-01-08T08:29:29.279Z,15.75
2019-01-08T08:30:09.870Z,15.8
2019-01-08T08:30:58.310Z,15.72
2019-01-08T08:31:31.077Z,15.75
2019-01-08T08:32:11.699Z,15.68
2019-01-08T08:32:52.359Z,15.67
2019-01-08T08:33:32.980Z,15.68
2019-01-08T08:34:13.570Z,15.72
2019-01-08T08:34:54.214Z,15.68
2019-01-08T08:35:34.831Z,15.67
2019-01-08T08:36:15.441Z,15.62
2019-01-08T08:36:56.067Z,15.67
2019-01-08T08:37:36.709Z,15.65
2019-01-08T08:38:17.341Z,15.71
2019-01-08T08:38:57.952Z,15.67
2019-01-08T08:39:38.553Z,15.71
2019-01-08T08:40:19.144Z,15.74
2019-01-08T08:40:59.749Z,15.69
2019-01-08T08:41:40.374Z,15.67
2019-01-08T08:42:20.986Z,15.65
2019-01-08T08:43:01.607Z,15.68
2019-01-08T08:43:42.219Z,15.69
2019-01-08T08:44:22.824Z,15.76
2019-01-08T08:45:03.424Z,15.75
2019-01-08T08:45:44.042Z,15.67
2019-01-08T08:46:24.673Z,15.72
2019-01-08T08:47:05.302Z,15.78
2019-01-08T08:47:45.916Z,15.68
2019-01-08T08:48:26.529Z,15.72
2019-01-08T08:49:07.132Z,15.71
2019-01-08T08:49:47.743Z,15.76
2019-01-08T08:50:28.344Z,15.75
2019-01-08T08:51:08.949Z,15.74
2019-01-08T08:51:49.567Z,15.67
2019-01-08T08:52:30.182Z,15.69
2019-01-08T08:53:10.788Z,15.76
2019-01-08T08:53:52.500Z,15.75
2019-01-08T08:54:32.026Z,15.75
2019-01-08T08:55:12.643Z,15.75
2019-01-08T08:55:53.242Z,15.8
2019-01-08T08:56:33.849Z,15.74
2019-01-08T08:57:14.468Z,15.83
2019-01-08T08:57:55.118Z,15.78
2019-01-08T08:58:35.745Z,15.76
2019-01-08T08:59:16.364Z,15.74
2019-01-08T08:59:56.997Z,15.74
2019-01-08T09:00:37.639Z,15.75
2019-01-08T09:01:18.304Z,15.75
2019-01-08T09:01:58.903Z,15.76
2019-01-08T09:02:39.528Z,15.71
2019-01-08T09:03:20.141Z,15.78